sensor_id;sensor_type;location;lat;lon;timestamp;P1;durP1;ratioP1;P2;durP2;ratioP2
58972;SDS011;44750;52.040;7.472;2023-06-14T00:03:06;1.10;;;0.80;;
58972;SDS011;44750;52.040;7.472;2023-06-14T00:08:07;0.98;;;0.90;;
58972;SDS011;44750;52.040;7.472;2023-06-14T00:13:07;1.52;;;1.00;;
58972;SDS011;44750;52.040;7.472;2023-06-14T00:18:08;0.80;;;0.80;;
58972;SDS011;44750;52.040;7.472;2023-06-14T00:23:08;0.70;;;0.63;;
58972;SDS011;44750;52.040;7.472;2023-06-14T00:28:09;0.60;;;0.50;;
58972;SDS011;44750;52.040;7.472;2023-06-14T00:33:09;0.68;;;0.65;;
58972;SDS011;44750;52.040;7.472;2023-06-14T00:38:09;1.03;;;0.80;;
58972;SDS011;44750;52.040;7.472;2023-06-14T00:43:09;0.93;;;0.70;;
58972;SDS011;44750;52.040;7.472;2023-06-14T00:48:10;1.15;;;0.80;;
58972;SDS011;44750;52.040;7.472;2023-06-14T00:53:20;1.95;;;1.20;;
58972;SDS011;44750;52.040;7.472;2023-06-14T00:58:21;1.10;;;1.00;;
58972;SDS011;44750;52.040;7.472;2023-06-14T01:03:22;7.57;;;1.13;;
58972;SDS011;44750;52.040;7.472;2023-06-14T01:13:34;1.23;;;0.80;;
58972;SDS011;44750;52.040;7.472;2023-06-14T01:18:36;1.17;;;1.02;;
58972;SDS011;44750;52.040;7.472;2023-06-14T01:23:36;0.93;;;0.80;;
58972;SDS011;44750;52.040;7.472;2023-06-14T01:28:36;1.85;;;1.08;;
58972;SDS011;44750;52.040;7.472;2023-06-14T01:33:37;1.37;;;0.97;;
58972;SDS011;44750;52.040;7.472;2023-06-14T01:38:37;1.30;;;0.98;;
58972;SDS011;44750;52.040;7.472;2023-06-14T01:43:39;1.73;;;0.88;;
58972;SDS011;44750;52.040;7.472;2023-06-14T01:48:41;6.47;;;1.30;;
58972;SDS011;44750;52.040;7.472;2023-06-14T01:53:42;0.75;;;0.57;;
58972;SDS011;44750;52.040;7.472;2023-06-14T01:58:42;1.88;;;1.33;;
58972;SDS011;44750;52.040;7.472;2023-06-14T02:03:42;1.08;;;0.80;;
58972;SDS011;44750;52.040;7.472;2023-06-14T02:08:42;0.60;;;0.60;;
58972;SDS011;44750;52.040;7.472;2023-06-14T02:13:43;2.90;;;1.00;;
58972;SDS011;44750;52.040;7.472;2023-06-14T02:18:43;1.80;;;0.90;;
58972;SDS011;44750;52.040;7.472;2023-06-14T02:23:43;1.63;;;0.80;;
58972;SDS011;44750;52.040;7.472;2023-06-14T02:28:43;1.10;;;0.93;;
58972;SDS011;44750;52.040;7.472;2023-06-14T02:33:43;1.77;;;0.90;;
58972;SDS011;44750;52.040;7.472;2023-06-14T02:38:44;15.10;;;1.13;;
58972;SDS011;44750;52.040;7.472;2023-06-14T02:43:44;2.90;;;1.30;;
58972;SDS011;44750;52.040;7.472;2023-06-14T02:48:44;2.67;;;1.13;;
58972;SDS011;44750;52.040;7.472;2023-06-14T02:53:44;1.33;;;0.95;;
58972;SDS011;44750;52.040;7.472;2023-06-14T02:58:44;1.52;;;0.93;;
58972;SDS011;44750;52.040;7.472;2023-06-14T03:03:45;1.42;;;0.93;;
58972;SDS011;44750;52.040;7.472;2023-06-14T03:08:45;3.33;;;1.30;;
58972;SDS011;44750;52.040;7.472;2023-06-14T03:13:45;1.38;;;0.90;;
58972;SDS011;44750;52.040;7.472;2023-06-14T03:18:45;1.13;;;0.73;;
58972;SDS011;44750;52.040;7.472;2023-06-14T03:23:46;3.63;;;1.20;;
58972;SDS011;44750;52.040;7.472;2023-06-14T03:28:47;1.63;;;1.08;;
58972;SDS011;44750;52.040;7.472;2023-06-14T03:33:47;1.25;;;0.88;;
58972;SDS011;44750;52.040;7.472;2023-06-14T03:38:47;1.33;;;1.08;;
58972;SDS011;44750;52.040;7.472;2023-06-14T03:43:48;1.10;;;1.00;;
58972;SDS011;44750;52.040;7.472;2023-06-14T03:48:48;1.83;;;1.08;;
58972;SDS011;44750;52.040;7.472;2023-06-14T03:53:48;1.08;;;0.90;;
58972;SDS011;44750;52.040;7.472;2023-06-14T03:58:48;5.90;;;1.05;;
58972;SDS011;44750;52.040;7.472;2023-06-14T04:03:48;1.20;;;0.98;;
58972;SDS011;44750;52.040;7.472;2023-06-14T04:08:49;1.80;;;0.93;;
58972;SDS011;44750;52.040;7.472;2023-06-14T04:13:49;3.47;;;1.02;;
58972;SDS011;44750;52.040;7.472;2023-06-14T04:18:49;1.08;;;0.98;;
58972;SDS011;44750;52.040;7.472;2023-06-14T04:23:49;1.73;;;1.00;;
58972;SDS011;44750;52.040;7.472;2023-06-14T04:28:50;1.25;;;1.10;;
58972;SDS011;44750;52.040;7.472;2023-06-14T04:33:50;1.37;;;1.20;;
58972;SDS011;44750;52.040;7.472;2023-06-14T04:38:50;1.15;;;1.05;;
58972;SDS011;44750;52.040;7.472;2023-06-14T04:43:51;1.83;;;1.02;;
58972;SDS011;44750;52.040;7.472;2023-06-14T04:48:51;1.08;;;0.80;;
58972;SDS011;44750;52.040;7.472;2023-06-14T04:53:51;4.13;;;1.13;;
58972;SDS011;44750;52.040;7.472;2023-06-14T04:58:51;0.80;;;0.80;;
58972;SDS011;44750;52.040;7.472;2023-06-14T05:03:52;2.50;;;1.27;;
58972;SDS011;44750;52.040;7.472;2023-06-14T05:08:52;1.95;;;1.20;;
58972;SDS011;44750;52.040;7.472;2023-06-14T05:13:52;4.63;;;1.15;;
58972;SDS011;44750;52.040;7.472;2023-06-14T05:18:52;1.63;;;0.80;;
58972;SDS011;44750;52.040;7.472;2023-06-14T05:23:53;1.33;;;1.05;;
58972;SDS011;44750;52.040;7.472;2023-06-14T05:28:53;1.75;;;1.02;;
58972;SDS011;44750;52.040;7.472;2023-06-14T05:33:53;1.25;;;0.93;;
58972;SDS011;44750;52.040;7.472;2023-06-14T05:38:54;1.25;;;0.88;;
58972;SDS011;44750;52.040;7.472;2023-06-14T05:43:55;1.80;;;1.02;;
58972;SDS011;44750;52.040;7.472;2023-06-14T05:48:56;1.33;;;0.75;;
58972;SDS011;44750;52.040;7.472;2023-06-14T05:53:56;0.95;;;0.70;;
58972;SDS011;44750;52.040;7.472;2023-06-14T05:58:56;1.52;;;0.85;;
58972;SDS011;44750;52.040;7.472;2023-06-14T06:03:56;0.60;;;0.60;;
58972;SDS011;44750;52.040;7.472;2023-06-14T06:08:56;1.60;;;0.85;;
58972;SDS011;44750;52.040;7.472;2023-06-14T06:13:57;0.73;;;0.65;;
58972;SDS011;44750;52.040;7.472;2023-06-14T06:18:57;2.38;;;0.95;;
58972;SDS011;44750;52.040;7.472;2023-06-14T06:23:57;0.70;;;0.70;;
58972;SDS011;44750;52.040;7.472;2023-06-14T06:28:58;2.08;;;0.60;;
58972;SDS011;44750;52.040;7.472;2023-06-14T06:33:58;1.00;;;0.63;;
58972;SDS011;44750;52.040;7.472;2023-06-14T06:38:58;6.15;;;0.75;;
58972;SDS011;44750;52.040;7.472;2023-06-14T06:43:59;0.50;;;0.50;;
58972;SDS011;44750;52.040;7.472;2023-06-14T06:48:59;1.25;;;0.95;;
58972;SDS011;44750;52.040;7.472;2023-06-14T06:53:59;1.30;;;0.55;;
58972;SDS011;44750;52.040;7.472;2023-06-14T06:58:59;0.60;;;0.60;;
58972;SDS011;44750;52.040;7.472;2023-06-14T07:04:00;1.25;;;0.70;;
58972;SDS011;44750;52.040;7.472;2023-06-14T07:09:00;1.93;;;0.90;;
58972;SDS011;44750;52.040;7.472;2023-06-14T07:14:01;0.50;;;0.50;;
58972;SDS011;44750;52.040;7.472;2023-06-14T07:19:01;1.17;;;0.63;;
58972;SDS011;44750;52.040;7.472;2023-06-14T07:24:02;0.50;;;0.50;;
58972;SDS011;44750;52.040;7.472;2023-06-14T07:29:03;0.45;;;0.40;;
58972;SDS011;44750;52.040;7.472;2023-06-14T07:34:03;1.95;;;0.50;;
58972;SDS011;44750;52.040;7.472;2023-06-14T07:39:04;0.52;;;0.52;;
58972;SDS011;44750;52.040;7.472;2023-06-14T07:44:04;0.45;;;0.45;;
58972;SDS011;44750;52.040;7.472;2023-06-14T07:49:04;0.40;;;0.40;;
58972;SDS011;44750;52.040;7.472;2023-06-14T07:54:05;0.47;;;0.47;;
58972;SDS011;44750;52.040;7.472;2023-06-14T07:59:05;0.60;;;0.43;;
58972;SDS011;44750;52.040;7.472;2023-06-14T08:04:05;0.55;;;0.40;;
58972;SDS011;44750;52.040;7.472;2023-06-14T08:09:05;0.40;;;0.40;;
58972;SDS011;44750;52.040;7.472;2023-06-14T08:14:05;1.95;;;0.60;;
58972;SDS011;44750;52.040;7.472;2023-06-14T08:19:06;0.60;;;0.60;;
58972;SDS011;44750;52.040;7.472;2023-06-14T08:24:15;0.38;;;0.38;;
58972;SDS011;44750;52.040;7.472;2023-06-14T08:29:15;0.50;;;0.40;;
58972;SDS011;44750;52.040;7.472;2023-06-14T08:34:15;0.70;;;0.50;;
58972;SDS011;44750;52.040;7.472;2023-06-14T08:39:16;0.60;;;0.60;;
58972;SDS011;44750;52.040;7.472;2023-06-14T08:44:16;0.87;;;0.87;;
58972;SDS011;44750;52.040;7.472;2023-06-14T08:49:17;0.40;;;0.40;;
58972;SDS011;44750;52.040;7.472;2023-06-14T08:54:17;0.47;;;0.47;;
58972;SDS011;44750;52.040;7.472;2023-06-14T08:59:17;0.43;;;0.43;;
58972;SDS011;44750;52.040;7.472;2023-06-14T09:04:18;0.90;;;0.67;;
58972;SDS011;44750;52.040;7.472;2023-06-14T09:09:19;0.20;;;0.20;;
58972;SDS011;44750;52.040;7.472;2023-06-14T09:14:23;0.30;;;0.30;;
58972;SDS011;44750;52.040;7.472;2023-06-14T09:19:24;0.60;;;0.55;;
58972;SDS011;44750;52.040;7.472;2023-06-14T09:24:24;0.30;;;0.30;;
58972;SDS011;44750;52.040;7.472;2023-06-14T09:29:25;0.40;;;0.38;;
58972;SDS011;44750;52.040;7.472;2023-06-14T09:34:25;0.88;;;0.70;;
58972;SDS011;44750;52.040;7.472;2023-06-14T09:39:25;0.20;;;0.20;;
58972;SDS011;44750;52.040;7.472;2023-06-14T09:44:26;1.17;;;0.65;;
58972;SDS011;44750;52.040;7.472;2023-06-14T09:49:26;3.73;;;0.57;;
58972;SDS011;44750;52.040;7.472;2023-06-14T09:54:26;0.30;;;0.30;;
58972;SDS011;44750;52.040;7.472;2023-06-14T09:59:29;0.25;;;0.25;;
58972;SDS011;44750;52.040;7.472;2023-06-14T10:04:31;0.60;;;0.47;;
58972;SDS011;44750;52.040;7.472;2023-06-14T10:09:33;3.15;;;0.47;;
58972;SDS011;44750;52.040;7.472;2023-06-14T10:14:34;0.52;;;0.38;;
58972;SDS011;44750;52.040;7.472;2023-06-14T10:19:42;0.20;;;0.20;;
58972;SDS011;44750;52.040;7.472;2023-06-14T10:24:48;0.57;;;0.50;;
58972;SDS011;44750;52.040;7.472;2023-06-14T10:34:55;0.50;;;0.50;;
58972;SDS011;44750;52.040;7.472;2023-06-14T10:39:56;1.08;;;0.70;;
58972;SDS011;44750;52.040;7.472;2023-06-14T10:44:57;1.38;;;0.57;;
58972;SDS011;44750;52.040;7.472;2023-06-14T11:00:05;0.67;;;0.60;;
58972;SDS011;44750;52.040;7.472;2023-06-14T11:05:08;0.30;;;0.30;;
58972;SDS011;44750;52.040;7.472;2023-06-14T11:15:28;0.80;;;0.50;;
58972;SDS011;44750;52.040;7.472;2023-06-14T11:20:33;0.68;;;0.50;;
58972;SDS011;44750;52.040;7.472;2023-06-14T11:25:35;0.57;;;0.40;;
58972;SDS011;44750;52.040;7.472;2023-06-14T11:30:35;0.47;;;0.47;;
58972;SDS011;44750;52.040;7.472;2023-06-14T11:35:35;1.23;;;0.38;;
58972;SDS011;44750;52.040;7.472;2023-06-14T11:40:37;0.30;;;0.30;;
58972;SDS011;44750;52.040;7.472;2023-06-14T11:45:38;1.15;;;0.77;;
58972;SDS011;44750;52.040;7.472;2023-06-14T11:50:38;0.65;;;0.40;;
58972;SDS011;44750;52.040;7.472;2023-06-14T11:55:39;4.78;;;0.55;;
58972;SDS011;44750;52.040;7.472;2023-06-14T12:00:39;0.55;;;0.40;;
58972;SDS011;44750;52.040;7.472;2023-06-14T12:05:39;0.93;;;0.50;;
58972;SDS011;44750;52.040;7.472;2023-06-14T12:10:40;1.67;;;0.70;;
58972;SDS011;44750;52.040;7.472;2023-06-14T12:15:41;0.47;;;0.40;;
58972;SDS011;44750;52.040;7.472;2023-06-14T12:20:41;0.47;;;0.47;;
58972;SDS011;44750;52.040;7.472;2023-06-14T12:25:41;0.22;;;0.22;;
58972;SDS011;44750;52.040;7.472;2023-06-14T12:30:41;0.40;;;0.40;;
58972;SDS011;44750;52.040;7.472;2023-06-14T12:35:41;1.23;;;0.65;;
58972;SDS011;44750;52.040;7.472;2023-06-14T12:40:42;0.60;;;0.40;;
58972;SDS011;44750;52.040;7.472;2023-06-14T12:45:42;0.85;;;0.60;;
58972;SDS011;44750;52.040;7.472;2023-06-14T12:50:42;0.47;;;0.40;;
58972;SDS011;44750;52.040;7.472;2023-06-14T12:55:42;0.40;;;0.40;;
58972;SDS011;44750;52.040;7.472;2023-06-14T13:00:43;2.85;;;0.70;;
58972;SDS011;44750;52.040;7.472;2023-06-14T13:05:43;0.90;;;0.68;;
58972;SDS011;44750;52.040;7.472;2023-06-14T13:10:43;0.55;;;0.55;;
58972;SDS011;44750;52.040;7.472;2023-06-14T13:15:43;1.00;;;0.60;;
58972;SDS011;44750;52.040;7.472;2023-06-14T13:20:45;0.95;;;0.50;;
58972;SDS011;44750;52.040;7.472;2023-06-14T13:25:46;1.08;;;0.75;;
58972;SDS011;44750;52.040;7.472;2023-06-14T13:30:46;0.90;;;0.63;;
58972;SDS011;44750;52.040;7.472;2023-06-14T13:35:46;1.25;;;0.70;;
58972;SDS011;44750;52.040;7.472;2023-06-14T13:40:46;0.68;;;0.65;;
58972;SDS011;44750;52.040;7.472;2023-06-14T13:45:48;0.93;;;0.70;;
58972;SDS011;44750;52.040;7.472;2023-06-14T13:50:48;0.68;;;0.50;;
58972;SDS011;44750;52.040;7.472;2023-06-14T13:55:49;0.70;;;0.40;;
58972;SDS011;44750;52.040;7.472;2023-06-14T14:00:49;0.57;;;0.57;;
58972;SDS011;44750;52.040;7.472;2023-06-14T14:05:49;0.65;;;0.47;;
58972;SDS011;44750;52.040;7.472;2023-06-14T14:10:49;0.68;;;0.50;;
58972;SDS011;44750;52.040;7.472;2023-06-14T14:15:50;0.35;;;0.35;;
58972;SDS011;44750;52.040;7.472;2023-06-14T14:20:50;1.83;;;0.65;;
58972;SDS011;44750;52.040;7.472;2023-06-14T14:25:50;0.77;;;0.50;;
58972;SDS011;44750;52.040;7.472;2023-06-14T14:30:50;0.75;;;0.60;;
58972;SDS011;44750;52.040;7.472;2023-06-14T14:35:51;0.65;;;0.55;;
58972;SDS011;44750;52.040;7.472;2023-06-14T14:40:51;0.77;;;0.52;;
58972;SDS011;44750;52.040;7.472;2023-06-14T14:45:51;1.27;;;0.73;;
58972;SDS011;44750;52.040;7.472;2023-06-14T14:50:51;0.50;;;0.50;;
58972;SDS011;44750;52.040;7.472;2023-06-14T14:55:52;1.10;;;0.82;;
58972;SDS011;44750;52.040;7.472;2023-06-14T15:00:52;0.77;;;0.50;;
58972;SDS011;44750;52.040;7.472;2023-06-14T15:05:52;0.95;;;0.60;;
58972;SDS011;44750;52.040;7.472;2023-06-14T15:10:52;0.55;;;0.47;;
58972;SDS011;44750;52.040;7.472;2023-06-14T15:15:52;14.20;;;0.55;;
58972;SDS011;44750;52.040;7.472;2023-06-14T15:20:53;0.60;;;0.40;;
58972;SDS011;44750;52.040;7.472;2023-06-14T15:25:53;0.63;;;0.50;;
58972;SDS011;44750;52.040;7.472;2023-06-14T15:30:53;0.85;;;0.63;;
58972;SDS011;44750;52.040;7.472;2023-06-14T15:35:54;3.80;;;0.70;;
58972;SDS011;44750;52.040;7.472;2023-06-14T15:40:54;0.82;;;0.50;;
58972;SDS011;44750;52.040;7.472;2023-06-14T15:45:55;1.02;;;0.70;;
58972;SDS011;44750;52.040;7.472;2023-06-14T15:50:55;0.68;;;0.68;;
58972;SDS011;44750;52.040;7.472;2023-06-14T15:55:55;2.23;;;0.73;;
58972;SDS011;44750;52.040;7.472;2023-06-14T16:00:55;3.38;;;0.40;;
58972;SDS011;44750;52.040;7.472;2023-06-14T16:05:56;5.05;;;0.40;;
58972;SDS011;44750;52.040;7.472;2023-06-14T16:10:56;0.70;;;0.70;;
58972;SDS011;44750;52.040;7.472;2023-06-14T16:15:56;2.83;;;0.60;;
58972;SDS011;44750;52.040;7.472;2023-06-14T16:20:56;1.23;;;0.50;;
58972;SDS011;44750;52.040;7.472;2023-06-14T16:25:57;0.32;;;0.32;;
58972;SDS011;44750;52.040;7.472;2023-06-14T16:30:57;1.88;;;0.75;;
58972;SDS011;44750;52.040;7.472;2023-06-14T16:35:57;0.50;;;0.40;;
58972;SDS011;44750;52.040;7.472;2023-06-14T16:40:58;0.70;;;0.55;;
58972;SDS011;44750;52.040;7.472;2023-06-14T16:45:58;0.55;;;0.50;;
58972;SDS011;44750;52.040;7.472;2023-06-14T16:50:59;0.95;;;0.50;;
58972;SDS011;44750;52.040;7.472;2023-06-14T16:55:59;0.52;;;0.47;;
58972;SDS011;44750;52.040;7.472;2023-06-14T17:01:00;2.05;;;0.75;;
58972;SDS011;44750;52.040;7.472;2023-06-14T17:06:00;0.68;;;0.50;;
58972;SDS011;44750;52.040;7.472;2023-06-14T17:11:00;0.40;;;0.40;;
58972;SDS011;44750;52.040;7.472;2023-06-14T17:16:01;0.70;;;0.50;;
58972;SDS011;44750;52.040;7.472;2023-06-14T17:21:02;6.13;;;0.60;;
58972;SDS011;44750;52.040;7.472;2023-06-14T17:26:02;1.05;;;0.65;;
58972;SDS011;44750;52.040;7.472;2023-06-14T17:31:03;2.80;;;1.15;;
58972;SDS011;44750;52.040;7.472;2023-06-14T17:36:03;1.52;;;0.90;;
58972;SDS011;44750;52.040;7.472;2023-06-14T17:41:04;0.80;;;0.63;;
58972;SDS011;44750;52.040;7.472;2023-06-14T17:46:04;0.82;;;0.68;;
58972;SDS011;44750;52.040;7.472;2023-06-14T17:51:05;0.87;;;0.47;;
58972;SDS011;44750;52.040;7.472;2023-06-14T17:56:06;0.60;;;0.40;;
58972;SDS011;44750;52.040;7.472;2023-06-14T18:01:06;4.22;;;0.88;;
58972;SDS011;44750;52.040;7.472;2023-06-14T18:06:06;4.88;;;0.93;;
58972;SDS011;44750;52.040;7.472;2023-06-14T18:11:06;0.70;;;0.60;;
58972;SDS011;44750;52.040;7.472;2023-06-14T18:16:07;0.40;;;0.40;;
58972;SDS011;44750;52.040;7.472;2023-06-14T18:21:07;1.55;;;1.00;;
58972;SDS011;44750;52.040;7.472;2023-06-14T18:26:07;2.22;;;1.20;;
58972;SDS011;44750;52.040;7.472;2023-06-14T18:31:07;1.33;;;0.90;;
58972;SDS011;44750;52.040;7.472;2023-06-14T18:36:07;0.98;;;0.85;;
58972;SDS011;44750;52.040;7.472;2023-06-14T18:41:08;1.65;;;1.20;;
58972;SDS011;44750;52.040;7.472;2023-06-14T18:46:11;2.13;;;1.15;;
58972;SDS011;44750;52.040;7.472;2023-06-14T18:51:11;1.77;;;1.05;;
58972;SDS011;44750;52.040;7.472;2023-06-14T18:56:11;1.05;;;0.95;;
58972;SDS011;44750;52.040;7.472;2023-06-14T19:01:12;1.70;;;0.80;;
58972;SDS011;44750;52.040;7.472;2023-06-14T19:06:12;0.80;;;0.80;;
58972;SDS011;44750;52.040;7.472;2023-06-14T19:11:12;0.50;;;0.50;;
58972;SDS011;44750;52.040;7.472;2023-06-14T19:16:14;1.10;;;1.00;;
58972;SDS011;44750;52.040;7.472;2023-06-14T19:21:14;1.15;;;0.88;;
58972;SDS011;44750;52.040;7.472;2023-06-14T19:26:15;3.03;;;1.17;;
58972;SDS011;44750;52.040;7.472;2023-06-14T19:31:15;1.52;;;1.13;;
58972;SDS011;44750;52.040;7.472;2023-06-14T19:36:15;6.13;;;1.17;;
58972;SDS011;44750;52.040;7.472;2023-06-14T19:41:16;2.78;;;1.10;;
58972;SDS011;44750;52.040;7.472;2023-06-14T19:46:17;1.50;;;0.93;;
58972;SDS011;44750;52.040;7.472;2023-06-14T19:51:17;1.70;;;1.10;;
58972;SDS011;44750;52.040;7.472;2023-06-14T19:56:17;1.33;;;0.85;;
58972;SDS011;44750;52.040;7.472;2023-06-14T20:01:17;4.43;;;0.95;;
58972;SDS011;44750;52.040;7.472;2023-06-14T20:06:18;7.75;;;1.25;;
58972;SDS011;44750;52.040;7.472;2023-06-14T20:11:18;3.08;;;1.27;;
58972;SDS011;44750;52.040;7.472;2023-06-14T20:16:21;2.35;;;1.27;;
58972;SDS011;44750;52.040;7.472;2023-06-14T20:21:21;1.77;;;1.07;;
58972;SDS011;44750;52.040;7.472;2023-06-14T20:26:22;0.90;;;0.85;;
58972;SDS011;44750;52.040;7.472;2023-06-14T20:31:22;1.10;;;1.00;;
58972;SDS011;44750;52.040;7.472;2023-06-14T20:36:23;1.05;;;1.00;;
58972;SDS011;44750;52.040;7.472;2023-06-14T20:41:23;1.85;;;1.23;;
58972;SDS011;44750;52.040;7.472;2023-06-14T20:46:23;1.43;;;0.87;;
58972;SDS011;44750;52.040;7.472;2023-06-14T20:51:24;14.35;;;1.35;;
58972;SDS011;44750;52.040;7.472;2023-06-14T20:56:24;1.23;;;0.80;;
58972;SDS011;44750;52.040;7.472;2023-06-14T21:01:24;1.52;;;1.15;;
58972;SDS011;44750;52.040;7.472;2023-06-14T21:06:24;1.65;;;0.77;;
58972;SDS011;44750;52.040;7.472;2023-06-14T21:11:25;3.25;;;1.52;;
58972;SDS011;44750;52.040;7.472;2023-06-14T21:16:25;1.65;;;1.20;;
58972;SDS011;44750;52.040;7.472;2023-06-14T21:21:25;0.68;;;0.65;;
58972;SDS011;44750;52.040;7.472;2023-06-14T21:26:25;1.10;;;1.00;;
58972;SDS011;44750;52.040;7.472;2023-06-14T21:31:25;1.38;;;1.23;;
58972;SDS011;44750;52.040;7.472;2023-06-14T21:36:26;1.75;;;1.23;;
58972;SDS011;44750;52.040;7.472;2023-06-14T21:41:26;1.38;;;0.90;;
58972;SDS011;44750;52.040;7.472;2023-06-14T21:46:29;3.63;;;1.00;;
58972;SDS011;44750;52.040;7.472;2023-06-14T21:51:29;4.10;;;1.57;;
58972;SDS011;44750;52.040;7.472;2023-06-14T21:56:30;1.55;;;1.27;;
58972;SDS011;44750;52.040;7.472;2023-06-14T22:01:30;1.17;;;1.00;;
58972;SDS011;44750;52.040;7.472;2023-06-14T22:06:30;3.67;;;1.52;;
58972;SDS011;44750;52.040;7.472;2023-06-14T22:11:30;3.13;;;1.85;;
58972;SDS011;44750;52.040;7.472;2023-06-14T22:16:30;5.15;;;1.30;;
58972;SDS011;44750;52.040;7.472;2023-06-14T22:21:31;2.72;;;1.08;;
58972;SDS011;44750;52.040;7.472;2023-06-14T22:26:40;1.83;;;1.27;;
58972;SDS011;44750;52.040;7.472;2023-06-14T22:31:44;2.60;;;1.73;;
58972;SDS011;44750;52.040;7.472;2023-06-14T22:36:44;2.17;;;1.45;;
58972;SDS011;44750;52.040;7.472;2023-06-14T22:41:45;1.85;;;1.52;;
58972;SDS011;44750;52.040;7.472;2023-06-14T22:46:45;8.10;;;1.57;;
58972;SDS011;44750;52.040;7.472;2023-06-14T22:51:45;8.23;;;1.43;;
58972;SDS011;44750;52.040;7.472;2023-06-14T22:56:46;1.30;;;1.15;;
58972;SDS011;44750;52.040;7.472;2023-06-14T23:01:46;1.77;;;1.35;;
58972;SDS011;44750;52.040;7.472;2023-06-14T23:06:46;1.95;;;1.35;;
58972;SDS011;44750;52.040;7.472;2023-06-14T23:11:46;3.03;;;1.43;;
58972;SDS011;44750;52.040;7.472;2023-06-14T23:16:47;1.52;;;1.13;;
58972;SDS011;44750;52.040;7.472;2023-06-14T23:21:47;1.77;;;1.30;;
58972;SDS011;44750;52.040;7.472;2023-06-14T23:26:47;1.63;;;1.15;;
58972;SDS011;44750;52.040;7.472;2023-06-14T23:31:47;1.63;;;1.35;;
58972;SDS011;44750;52.040;7.472;2023-06-14T23:36:47;5.03;;;1.58;;
58972;SDS011;44750;52.040;7.472;2023-06-14T23:41:48;1.60;;;1.50;;
58972;SDS011;44750;52.040;7.472;2023-06-14T23:46:48;2.63;;;1.73;;
58972;SDS011;44750;52.040;7.472;2023-06-14T23:51:49;2.70;;;1.73;;
58972;SDS011;44750;52.040;7.472;2023-06-14T23:56:49;1.83;;;1.50;;
